createdAt,value
2018-12-25T00:00:28.592Z,10.38
2018-12-25T00:03:02.062Z,10.34
2018-12-25T00:05:33.945Z,10.44
2018-12-25T00:08:05.121Z,10.08
2018-12-25T00:10:35.734Z,9.91
2018-12-25T00:13:08.846Z,10.33
2018-12-25T00:15:40.754Z,10.38
2018-12-25T00:18:13.561Z,10.59
2018-12-25T00:20:44.844Z,10.58
2018-12-25T00:23:15.651Z,10.51
2018-12-25T00:25:46.571Z,10.70
2018-12-25T00:28:17.836Z,10.71
2018-12-25T00:30:49.028Z,10.81
2018-12-25T00:33:19.792Z,10.47
2018-12-25T00:35:52.664Z,10.56
2018-12-25T00:38:26.080Z,9.85
2018-12-25T00:40:56.913Z,9.70
2018-12-25T00:43:27.816Z,10.05
2018-12-25T00:45:59.280Z,9.87
2018-12-25T00:48:30.690Z,10.35
2018-12-25T00:51:03.086Z,10.54
2018-12-25T00:53:36.887Z,10.66
2018-12-25T00:56:10.243Z,10.08
2018-12-25T00:58:42.158Z,9.76
2018-12-25T01:01:12.775Z,9.82
2018-12-25T01:03:45.361Z,9.89
2018-12-25T01:06:17.560Z,9.58
2018-12-25T01:08:49.495Z,9.80
2018-12-25T01:11:21.078Z,9.85
2018-12-25T01:13:51.436Z,9.96
2018-12-25T01:16:29.109Z,10.18
2018-12-25T01:19:04.557Z,9.94
2018-12-25T01:21:38.728Z,10.15
2018-12-25T01:24:10.387Z,9.98
2018-12-25T01:26:41.636Z,9.76
2018-12-25T01:29:12.678Z,10.14
2018-12-25T01:31:43.104Z,10.09
2018-12-25T01:34:13.756Z,10.32
2018-12-25T01:36:46.483Z,10.54
2018-12-25T01:39:20.843Z,10.62
2018-12-25T01:41:51.886Z,10.79
2018-12-25T01:44:22.382Z,10.50
2018-12-25T01:46:52.826Z,10.75
2018-12-25T01:49:31.549Z,10.60
2018-12-25T01:51:56.467Z,10.64
2018-12-25T01:54:30.885Z,10.94
2018-12-25T01:57:05.471Z,10.76
2018-12-25T01:59:36.645Z,11.04
2018-12-25T02:02:08.751Z,11.10
2018-12-25T02:04:43.187Z,9.67
2018-12-25T02:07:17.029Z,10.33
2018-12-25T02:09:50.749Z,9.94
2018-12-25T02:12:22.798Z,10.83
2018-12-25T02:14:53.268Z,10.88
2018-12-25T02:17:24.471Z,10.86
2018-12-25T02:19:55.227Z,10.74
2018-12-25T02:22:25.862Z,10.47
2018-12-25T02:24:58.381Z,10.29
2018-12-25T02:27:29.684Z,10.13
2018-12-25T02:30:00.365Z,10.42
2018-12-25T02:32:35.173Z,10.76
2018-12-25T02:35:08.035Z,10.37
2018-12-25T02:37:43.098Z,10.34
2018-12-25T02:40:22.466Z,10.62
2018-12-25T02:43:06.154Z,10.68
2018-12-25T02:45:36.736Z,10.37
2018-12-25T02:48:08.015Z,10.35
2018-12-25T02:50:38.339Z,10.68
2018-12-25T02:53:09.072Z,10.56
2018-12-25T02:55:40.628Z,10.79
2018-12-25T02:58:13.103Z,11.08
2018-12-25T03:00:46.540Z,10.92
2018-12-25T03:03:19.689Z,11.14
2018-12-25T03:05:51.303Z,11.25
2018-12-25T03:08:24.452Z,11.07
2018-12-25T03:10:54.774Z,11.19
2018-12-25T03:13:28.680Z,11.37
2018-12-25T03:15:59.659Z,11.25
2018-12-25T03:18:31.149Z,11.25
2018-12-25T03:21:01.456Z,11.31
2018-12-25T03:23:32.270Z,11.21
2018-12-25T03:26:02.868Z,11.24
2018-12-25T03:28:35.554Z,11.24
2018-12-25T03:31:07.520Z,11.03
2018-12-25T03:33:38.765Z,10.85
2018-12-25T03:36:10.195Z,11.37
2018-12-25T03:38:41.193Z,11.45
2018-12-25T03:41:11.481Z,11.32
2018-12-25T03:43:46.740Z,11.50
2018-12-25T03:46:18.174Z,11.31
2018-12-25T03:48:49.566Z,11.27
2018-12-25T03:51:22.269Z,11.42
2018-12-25T03:53:52.959Z,11.00
2018-12-25T03:56:23.886Z,11.12
2018-12-25T03:58:56.466Z,11.18
2018-12-25T04:01:27.089Z,11.33
2018-12-25T04:04:01.022Z,11.33
2018-12-25T04:06:32.768Z,11.54
2018-12-25T04:09:04.723Z,11.59
2018-12-25T04:11:35.915Z,11.43
2018-12-25T04:14:08.036Z,11.41
2018-12-25T04:16:39.548Z,11.41
2018-12-25T04:19:10.927Z,11.39
2018-12-25T04:21:41.710Z,11.59
2018-12-25T04:24:12.490Z,11.61
2018-12-25T04:26:42.781Z,11.83
2018-12-25T04:29:14.764Z,11.63
2018-12-25T04:31:46.184Z,11.84
2018-12-25T04:34:16.505Z,11.54
2018-12-25T04:36:46.963Z,11.81
2018-12-25T04:39:18.691Z,12.08
2018-12-25T04:41:49.004Z,12.05
2018-12-25T04:44:20.656Z,11.74
2018-12-25T04:46:52.962Z,11.78
2018-12-25T04:49:24.126Z,11.68
2018-12-25T04:51:56.480Z,11.73
2018-12-25T04:54:29.129Z,11.68
2018-12-25T04:57:01.605Z,11.97
2018-12-25T04:59:35.253Z,11.33
2018-12-25T05:02:05.923Z,11.64
2018-12-25T05:04:36.306Z,11.61
2018-12-25T05:07:10.697Z,12.04
2018-12-25T05:09:41.122Z,12.06
2018-12-25T05:12:13.602Z,12.25
2018-12-25T05:14:46.793Z,12.33
2018-12-25T05:17:17.120Z,12.37
2018-12-25T05:19:48.778Z,12.41
2018-12-25T05:22:20.026Z,11.83
2018-12-25T05:24:50.961Z,12.32
2018-12-25T05:27:22.896Z,12.40
2018-12-25T05:29:55.727Z,12.47
2018-12-25T05:32:26.566Z,12.20
2018-12-25T05:34:58.261Z,12.26
2018-12-25T05:37:29.073Z,12.33
2018-12-25T05:40:00.605Z,12.33
2018-12-25T05:42:31.559Z,12.33
2018-12-25T05:45:02.731Z,12.12
2018-12-25T05:47:38.253Z,12.28
2018-12-25T05:50:10.731Z,12.37
2018-12-25T05:52:43.105Z,12.44
2018-12-25T05:55:13.842Z,12.26
2018-12-25T05:57:48.162Z,12.30
2018-12-25T06:00:19.717Z,12.23
2018-12-25T06:02:51.887Z,12.22
2018-12-25T06:05:22.724Z,12.23
2018-12-25T06:07:55.631Z,12.18
2018-12-25T06:10:27.350Z,12.06
2018-12-25T06:13:12.751Z,12.03
2018-12-25T06:15:46.651Z,12.13
2018-12-25T06:18:17.623Z,12.15
2018-12-25T06:20:55.063Z,11.85
2018-12-25T06:23:23.242Z,11.81
2018-12-25T06:25:55.132Z,11.88
2018-12-25T06:28:26.560Z,12.06
2018-12-25T06:30:59.168Z,11.61
2018-12-25T06:33:29.736Z,11.90
2018-12-25T06:36:00.916Z,12.03
2018-12-25T06:38:31.984Z,11.92
2018-12-25T06:41:02.720Z,11.75
2018-12-25T06:43:33.944Z,11.97
2018-12-25T06:46:05.319Z,11.90
2018-12-25T06:48:36.669Z,12.05
2018-12-25T06:51:08.958Z,12.09
2018-12-25T06:53:39.855Z,12.15
2018-12-25T06:56:11.261Z,12.19
2018-12-25T06:58:42.510Z,12.16
2018-12-25T07:01:14.256Z,12.23
2018-12-25T07:03:45.666Z,12.31
2018-12-25T07:06:16.005Z,12.33
2018-12-25T07:08:48.015Z,12.35
2018-12-25T07:11:19.829Z,12.27
2018-12-25T07:13:51.630Z,12.30
2018-12-25T07:16:23.862Z,12.01
2018-12-25T07:18:55.152Z,11.24
2018-12-25T07:21:25.845Z,11.42
2018-12-25T07:23:59.142Z,11.58
2018-12-25T07:26:29.551Z,11.76
2018-12-25T07:29:00.512Z,11.84
2018-12-25T07:31:31.451Z,11.86
2018-12-25T07:34:02.082Z,12.01
2018-12-25T07:36:33.025Z,12.08
2018-12-25T07:39:04.497Z,12.11
2018-12-25T07:41:37.794Z,11.86
2018-12-25T07:44:09.041Z,11.86
2018-12-25T07:46:41.314Z,11.15
2018-12-25T07:49:13.686Z,11.86
2018-12-25T07:51:48.479Z,11.95
2018-12-25T07:54:20.442Z,11.55
2018-12-25T07:56:55.010Z,12.02
2018-12-25T07:59:28.409Z,12.25
2018-12-25T08:02:00.432Z,12.16
2018-12-25T08:04:32.605Z,12.30
2018-12-25T08:07:06.205Z,12.35
2018-12-25T08:09:37.599Z,12.42
2018-12-25T08:12:09.144Z,11.89
2018-12-25T08:14:39.816Z,12.16
2018-12-25T08:17:12.864Z,11.82
2018-12-25T08:19:47.295Z,12.29
2018-12-25T08:22:19.322Z,12.02
2018-12-25T08:24:50.974Z,11.76
2018-12-25T08:27:26.459Z,12.16
2018-12-25T08:29:59.963Z,12.48
2018-12-25T08:32:31.753Z,12.67
2018-12-25T08:35:05.573Z,12.78
2018-12-25T08:37:48.791Z,12.86
2018-12-25T08:40:23.830Z,12.44
2018-12-25T08:42:57.379Z,12.45
2018-12-25T08:45:27.792Z,11.90
2018-12-25T08:47:59.262Z,11.67
2018-12-25T08:50:32.078Z,12.04
2018-12-25T08:53:04.316Z,11.95
2018-12-25T08:55:38.719Z,12.43
2018-12-25T08:58:12.092Z,12.29
2018-12-25T09:00:42.954Z,12.66
2018-12-25T09:03:32.713Z,12.47
2018-12-25T09:06:15.652Z,12.47
2018-12-25T09:08:49.017Z,12.52
2018-12-25T09:11:24.784Z,12.33
2018-12-25T09:13:57.310Z,12.71
2018-12-25T09:16:27.611Z,12.87
2018-12-25T09:18:59.042Z,13.17
2018-12-25T09:21:30.211Z,13.12
2018-12-25T09:24:04.292Z,13.31
2018-12-25T09:26:34.594Z,13.44
2018-12-25T09:29:04.995Z,13.54
2018-12-25T09:31:36.385Z,13.60
2018-12-25T09:34:12.852Z,13.72
2018-12-25T09:36:43.327Z,13.70
2018-12-25T09:39:15.081Z,13.74
2018-12-25T09:41:46.954Z,13.49
2018-12-25T09:44:17.853Z,13.51
2018-12-25T09:46:48.134Z,13.74
2018-12-25T09:49:18.443Z,13.70
2018-12-25T09:51:54.533Z,13.38
2018-12-25T09:54:24.271Z,13.47
2018-12-25T09:56:54.697Z,13.28
2018-12-25T09:59:26.975Z,13.59
2018-12-25T10:01:57.401Z,13.39
2018-12-25T10:04:28.919Z,13.47
2018-12-25T10:06:59.976Z,13.23
2018-12-25T10:09:31.059Z,13.13
2018-12-25T10:12:02.539Z,13.46
2018-12-25T10:14:34.311Z,13.73
2018-12-25T10:17:05.084Z,13.77
2018-12-25T10:19:39.741Z,13.84
2018-12-25T10:22:15.840Z,13.77
2018-12-25T10:24:46.572Z,13.90
2018-12-25T10:27:17.334Z,14.05
2018-12-25T10:29:48.048Z,14.24
2018-12-25T10:32:19.512Z,14.16
2018-12-25T10:34:51.850Z,14.31
2018-12-25T10:37:22.271Z,14.47
2018-12-25T10:39:53.052Z,14.93
2018-12-25T10:42:23.424Z,15.03
2018-12-25T10:44:54.053Z,15.23
2018-12-25T10:47:26.651Z,15.37
2018-12-25T10:50:00.296Z,15.73
2018-12-25T10:52:30.626Z,15.76
2018-12-25T10:55:02.657Z,15.90
2018-12-25T10:57:34.124Z,15.97
2018-12-25T11:00:06.399Z,15.75
2018-12-25T11:02:36.844Z,15.72
2018-12-25T11:05:09.290Z,15.74
2018-12-25T11:07:39.611Z,15.11
2018-12-25T11:10:10.140Z,15.19
2018-12-25T11:12:44.519Z,15.28
2018-12-25T11:15:16.337Z,15.35
2018-12-25T11:17:47.095Z,15.30
2018-12-25T11:20:19.140Z,15.26
2018-12-25T11:22:53.855Z,15.26
2018-12-25T11:25:28.088Z,15.05
2018-12-25T11:27:59.444Z,15.23
2018-12-25T11:30:32.321Z,15.22
2018-12-25T11:33:04.163Z,15.12
2018-12-25T11:35:35.756Z,15.05
2018-12-25T11:38:08.291Z,14.78
2018-12-25T11:40:42.297Z,14.98
2018-12-25T11:43:17.353Z,15.01
2018-12-25T11:45:48.011Z,15.08
2018-12-25T11:48:19.994Z,15.02
2018-12-25T11:50:51.031Z,14.97
2018-12-25T11:53:21.727Z,14.92
2018-12-25T11:55:54.731Z,14.70
2018-12-25T11:58:30.526Z,14.63
2018-12-25T12:01:01.166Z,14.51
2018-12-25T12:03:37.136Z,14.19
2018-12-25T12:06:17.278Z,14.14
2018-12-25T12:08:49.591Z,14.34
2018-12-25T12:11:20.138Z,14.63
2018-12-25T12:13:52.310Z,14.17
2018-12-25T12:16:25.897Z,14.33
2018-12-25T12:18:59.775Z,14.42
2018-12-25T12:21:33.220Z,13.93
2018-12-25T12:24:12.079Z,14.07
2018-12-25T12:26:49.237Z,14.07
2018-12-25T12:29:22.713Z,14.27
2018-12-25T12:31:55.826Z,14.00
2018-12-25T12:34:26.947Z,14.01
2018-12-25T12:37:00.492Z,13.99
2018-12-25T12:39:35.739Z,13.55
2018-12-25T12:42:08.188Z,13.86
2018-12-25T12:44:40.817Z,13.96
2018-12-25T12:47:16.082Z,13.61
2018-12-25T12:49:46.822Z,14.06
2018-12-25T12:52:18.405Z,14.23
2018-12-25T12:54:50.892Z,14.28
2018-12-25T12:57:22.344Z,14.32
2018-12-25T12:59:58.525Z,14.26
2018-12-25T13:02:36.720Z,14.11
2018-12-25T13:05:08.777Z,14.05
2018-12-25T13:07:39.194Z,14.49
2018-12-25T13:10:09.933Z,14.21
2018-12-25T13:12:40.286Z,14.37
2018-12-25T13:15:11.764Z,14.06
2018-12-25T13:17:45.415Z,13.94
2018-12-25T13:20:16.338Z,13.77
2018-12-25T13:22:53.876Z,13.75
2018-12-25T13:25:20.510Z,13.69
2018-12-25T13:27:53.054Z,13.61
2018-12-25T13:30:27.855Z,13.87
2018-12-25T13:32:59.479Z,13.66
2018-12-25T13:35:33.883Z,13.82
2018-12-25T13:38:19.010Z,14.12
2018-12-25T13:40:50.992Z,14.24
2018-12-25T13:43:25.218Z,13.36
2018-12-25T13:45:55.787Z,13.18
2018-12-25T13:48:28.549Z,13.24
2018-12-25T13:51:01.351Z,13.16
2018-12-25T13:53:35.570Z,13.57
2018-12-25T13:56:06.544Z,13.56
2018-12-25T13:58:38.859Z,13.50
2018-12-25T14:01:10.824Z,13.81
2018-12-25T14:03:48.068Z,13.79
2018-12-25T14:06:19.361Z,13.55
2018-12-25T14:08:52.795Z,13.94
2018-12-25T14:11:27.897Z,13.58
2018-12-25T14:14:01.312Z,13.89
2018-12-25T14:16:35.310Z,14.11
2018-12-25T14:19:10.494Z,13.98
2018-12-25T14:21:43.543Z,13.91
2018-12-25T14:24:16.675Z,13.04
2018-12-25T14:26:50.969Z,13.53
2018-12-25T14:29:23.756Z,13.37
2018-12-25T14:31:58.873Z,13.58
2018-12-25T14:34:31.540Z,13.91
2018-12-25T14:37:04.058Z,13.88
2018-12-25T14:39:35.232Z,13.55
2018-12-25T14:42:08.657Z,13.74
2018-12-25T14:44:40.357Z,13.77
2018-12-25T14:47:18.061Z,13.67
2018-12-25T14:49:52.021Z,13.65
2018-12-25T14:52:24.421Z,13.63
2018-12-25T14:54:58.076Z,12.38
2018-12-25T14:57:28.702Z,12.87
2018-12-25T15:00:04.690Z,12.21
2018-12-25T15:02:36.711Z,12.23
2018-12-25T15:05:09.998Z,12.10
2018-12-25T15:07:40.714Z,12.44
2018-12-25T15:10:12.519Z,12.57
2018-12-25T15:12:46.545Z,12.19
2018-12-25T15:15:17.426Z,12.73
2018-12-25T15:17:51.233Z,12.91
2018-12-25T15:20:31.197Z,11.37
2018-12-25T15:23:05.832Z,10.95
2018-12-25T15:25:38.374Z,11.94
2018-12-25T15:28:11.238Z,12.27
2018-12-25T15:30:44.790Z,11.67
2018-12-25T15:33:16.389Z,11.93
2018-12-25T15:35:49.201Z,12.33
2018-12-25T15:38:21.624Z,11.80
2018-12-25T15:40:55.092Z,11.65
2018-12-25T15:43:27.630Z,11.67
2018-12-25T15:46:11.470Z,12.01
2018-12-25T15:48:50.626Z,12.53
2018-12-25T15:51:23.101Z,11.59
2018-12-25T15:53:56.031Z,12.22
2018-12-25T15:56:26.452Z,12.24
2018-12-25T15:58:57.926Z,12.15
2018-12-25T16:01:31.622Z,12.57
2018-12-25T16:04:02.651Z,12.68
2018-12-25T16:06:38.716Z,12.67
2018-12-25T16:09:12.888Z,12.48
2018-12-25T16:11:45.164Z,12.61
2018-12-25T16:14:28.300Z,12.87
2018-12-25T16:17:01.463Z,12.81
2018-12-25T16:19:35.152Z,12.23
2018-12-25T16:22:06.686Z,12.23
2018-12-25T16:24:42.722Z,12.52
2018-12-25T16:27:15.088Z,11.80
2018-12-25T16:29:45.403Z,12.37
2018-12-25T16:32:20.665Z,12.59
2018-12-25T16:34:52.449Z,12.55
2018-12-25T16:37:23.902Z,12.55
2018-12-25T16:39:56.232Z,12.48
2018-12-25T16:42:27.005Z,12.78
2018-12-25T16:44:57.311Z,12.88
2018-12-25T16:47:27.689Z,12.94
2018-12-25T16:49:58.045Z,13.04
2018-12-25T16:52:28.916Z,12.96
2018-12-25T16:55:03.710Z,12.69
2018-12-25T16:57:35.727Z,12.75
2018-12-25T17:00:08.266Z,12.88
2018-12-25T17:02:44.019Z,12.99
2018-12-25T17:05:18.168Z,11.90
2018-12-25T17:07:52.505Z,12.53
2018-12-25T17:10:26.702Z,12.55
2018-12-25T17:12:58.289Z,12.20
2018-12-25T17:15:30.060Z,11.98
2018-12-25T17:18:03.718Z,12.40
2018-12-25T17:20:49.834Z,12.30
2018-12-25T17:23:21.226Z,12.57
2018-12-25T17:25:52.865Z,12.63
2018-12-25T17:28:27.922Z,12.68
2018-12-25T17:31:00.768Z,12.74
2018-12-25T17:33:33.753Z,12.63
2018-12-25T17:36:05.514Z,12.79
2018-12-25T17:38:39.426Z,12.82
2018-12-25T17:41:14.576Z,12.22
2018-12-25T17:43:53.884Z,12.64
2018-12-25T17:46:26.645Z,12.47
2018-12-25T17:49:00.556Z,12.03
2018-12-25T17:51:31.555Z,12.33
2018-12-25T17:54:10.488Z,11.90
2018-12-25T17:56:37.873Z,11.24
2018-12-25T17:59:08.185Z,11.86
2018-12-25T18:01:39.461Z,11.70
2018-12-25T18:04:14.408Z,11.29
2018-12-25T18:06:48.888Z,12.00
2018-12-25T18:09:22.842Z,12.04
2018-12-25T18:11:55.061Z,11.75
2018-12-25T18:14:26.261Z,11.75
2018-12-25T18:16:58.373Z,11.76
2018-12-25T18:19:42.771Z,11.73
2018-12-25T18:22:15.976Z,12.09
2018-12-25T18:24:47.226Z,12.42
2018-12-25T18:27:19.195Z,12.51
2018-12-25T18:29:51.757Z,12.74
2018-12-25T18:32:32.507Z,12.25
2018-12-25T18:35:03.463Z,11.69
2018-12-25T18:37:36.481Z,11.53
2018-12-25T18:40:09.242Z,11.12
2018-12-25T18:42:40.790Z,11.18
2018-12-25T18:45:11.643Z,11.73
2018-12-25T18:47:44.938Z,11.98
2018-12-25T18:50:17.331Z,11.72
2018-12-25T18:52:51.264Z,11.91
2018-12-25T18:55:21.656Z,11.91
2018-12-25T18:57:51.960Z,12.11
2018-12-25T19:00:24.846Z,11.76
2018-12-25T19:02:55.554Z,11.54
2018-12-25T19:05:26.233Z,11.04
2018-12-25T19:07:59.699Z,11.30
2018-12-25T19:10:30.872Z,11.74
2018-12-25T19:13:01.294Z,11.63
2018-12-25T19:15:35.798Z,11.64
2018-12-25T19:18:08.878Z,11.02
2018-12-25T19:20:41.263Z,11.32
2018-12-25T19:23:12.499Z,10.28
2018-12-25T19:25:45.535Z,11.18
2018-12-25T19:28:18.009Z,11.13
2018-12-25T19:30:50.353Z,11.43
2018-12-25T19:33:22.320Z,11.59
2018-12-25T19:35:57.859Z,11.60
2018-12-25T19:38:37.731Z,11.82
2018-12-25T19:41:10.251Z,11.81
2018-12-25T19:43:44.969Z,11.90
2018-12-25T19:46:20.982Z,12.01
2018-12-25T19:48:52.191Z,11.76
2018-12-25T19:51:26.869Z,11.81
2018-12-25T19:54:04.979Z,11.65
2018-12-25T19:56:52.220Z,11.82
2018-12-25T19:59:22.953Z,11.96
2018-12-25T20:01:58.022Z,12.07
2018-12-25T20:04:40.891Z,12.07
2018-12-25T20:07:54.245Z,12.03
2018-12-25T20:11:08.697Z,12.12
2018-12-25T20:14:33.216Z,11.89
2018-12-25T20:17:50.088Z,11.99
2018-12-25T20:21:14.090Z,12.04
2018-12-25T20:24:01.722Z,12.04
2018-12-25T20:27:29.711Z,12.04
2018-12-25T20:30:47.806Z,11.99
2018-12-25T20:33:41.832Z,11.80
2018-12-25T20:36:49.357Z,11.80
2018-12-25T20:40:08.398Z,11.88
2018-12-25T20:43:09.430Z,11.81
2018-12-25T20:46:12.339Z,11.90
2018-12-25T20:49:42.164Z,11.89
2018-12-25T20:52:59.262Z,11.87
2018-12-25T20:56:17.635Z,11.79
2018-12-25T20:59:37.907Z,11.84
2018-12-25T21:02:43.902Z,11.74
2018-12-25T21:05:55.719Z,10.92
2018-12-25T21:09:09.873Z,11.56
2018-12-25T21:12:26.127Z,11.59
2018-12-25T21:15:37.494Z,11.42
2018-12-25T21:19:02.169Z,11.48
2018-12-25T21:22:08.607Z,11.49
2018-12-25T21:25:17.782Z,11.49
2018-12-25T21:27:46.628Z,11.42
2018-12-25T21:30:18.758Z,11.31
2018-12-25T21:32:49.456Z,11.40
2018-12-25T21:35:26.615Z,11.38
2018-12-25T21:38:00.467Z,11.37
2018-12-25T21:40:32.502Z,11.38
2018-12-25T21:43:04.111Z,11.38
2018-12-25T21:45:37.458Z,11.32
2018-12-25T21:48:09.299Z,11.26
2018-12-25T21:50:40.714Z,11.24
2018-12-25T21:53:26.453Z,11.32
2018-12-25T21:56:00.633Z,11.31
2018-12-25T21:58:35.438Z,11.30
2018-12-25T22:01:07.319Z,11.36
2018-12-25T22:03:39.043Z,11.21
2018-12-25T22:06:10.511Z,11.25
2018-12-25T22:08:45.517Z,11.08
2018-12-25T22:11:17.726Z,11.07
2018-12-25T22:13:51.576Z,10.85
2018-12-25T22:16:24.121Z,10.83
2018-12-25T22:18:58.308Z,10.57
2018-12-25T22:21:30.408Z,10.65
2018-12-25T22:24:04.060Z,10.61
2018-12-25T22:26:42.208Z,10.77
2018-12-25T22:29:14.190Z,10.53
2018-12-25T22:31:44.509Z,10.79
2018-12-25T22:34:15.524Z,10.77
2018-12-25T22:36:46.764Z,10.72
2018-12-25T22:39:18.999Z,10.75
2018-12-25T22:41:50.793Z,10.70
2018-12-25T22:44:22.925Z,10.72
2018-12-25T22:46:54.214Z,10.60
2018-12-25T22:49:26.512Z,10.58
2018-12-25T22:52:00.820Z,10.49
2018-12-25T22:54:33.498Z,10.64
2018-12-25T22:57:05.235Z,10.55
2018-12-25T22:59:37.756Z,10.69
2018-12-25T23:02:09.805Z,10.50
2018-12-25T23:04:43.655Z,10.52
2018-12-25T23:07:16.184Z,10.34
2018-12-25T23:09:50.251Z,9.27
2018-12-25T23:12:21.106Z,9.53
2018-12-25T23:14:52.252Z,9.89
2018-12-25T23:17:22.580Z,10.08
2018-12-25T23:19:55.895Z,9.75
2018-12-25T23:22:41.311Z,9.95
2018-12-25T23:25:14.881Z,10.04
2018-12-25T23:27:50.620Z,10.22
2018-12-25T23:30:21.037Z,10.17
2018-12-25T23:32:52.246Z,10.22
2018-12-25T23:35:23.594Z,10.23
2018-12-25T23:37:55.879Z,10.32
2018-12-25T23:40:30.355Z,10.30
2018-12-25T23:43:08.262Z,10.23
2018-12-25T23:45:41.732Z,10.38
2018-12-25T23:48:14.635Z,10.33
2018-12-25T23:50:50.267Z,10.38
2018-12-25T23:53:22.418Z,10.36
2018-12-25T23:55:57.215Z,10.23
2018-12-25T23:58:27.880Z,10.36
